Time;durP1;ratioP1;P1;durP2;ratioP2;P2;SDS_P1;SDS_P2;PMS_P1;PMS_P2;Temp;Humidity;BMP_temperature;BMP_pressure;BME280_temperature;BME280_humidity;BME280_pressure;Samples;Min_cycle;Max_cycle;Signal;HPM_P1;HPM_P2
2023/07/20 00:00:53;;;;;;;3.58;1.88;;;;;;;;;;5062147;28;20033;-90
2023/07/20 00:03:22;;;;;;;2.33;1.90;;;;;;;;;;5060941;28;20052;-84
2023/07/20 00:05:49;;;;;;;3.03;1.80;;;;;;;;;;5059117;28;20055;-86
2023/07/20 00:08:15;;;;;;;3.88;1.98;;;;;;;;;;5056987;28;20036;-86
2023/07/20 00:10:41;;;;;;;2.47;1.35;;;;;;;;;;5036124;28;20093;-87
2023/07/20 00:13:07;;;;;;;1.83;1.50;;;;;;;;;;5054548;28;20087;-87
2023/07/20 00:15:33;;;;;;;2.70;1.35;;;;;;;;;;5054149;28;20130;-82
2023/07/20 00:17:59;;;;;;;1.60;1.40;;;;;;;;;;5055845;28;20488;-83
2023/07/20 00:20:25;;;;;;;3.55;1.52;;;;;;;;;;5056756;28;20053;-86
2023/07/20 00:22:51;;;;;;;2.42;1.50;;;;;;;;;;5052228;28;20040;-87
2023/07/20 00:25:18;;;;;;;1.38;1.20;;;;;;;;;;5046883;28;20067;-85
2023/07/20 00:27:44;;;;;;;2.25;1.30;;;;;;;;;;5055486;28;20056;-85
2023/07/20 00:30:10;;;;;;;2.38;1.40;;;;;;;;;;5055987;28;20591;-84
2023/07/20 00:32:36;;;;;;;1.90;1.38;;;;;;;;;;5054828;28;20552;-86
2023/07/20 00:35:02;;;;;;;1.73;1.30;;;;;;;;;;5055041;28;20040;-85
2023/07/20 00:37:29;;;;;;;1.52;1.30;;;;;;;;;;5034682;28;20484;-85
2023/07/20 00:39:55;;;;;;;1.42;1.23;;;;;;;;;;5056340;28;20147;-81
2023/07/20 00:42:21;;;;;;;2.33;1.48;;;;;;;;;;5054422;28;20623;-86
2023/07/20 00:44:47;;;;;;;1.88;1.27;;;;;;;;;;5054558;28;20423;-84
2023/07/20 00:47:13;;;;;;;1.75;1.42;;;;;;;;;;5053902;28;20048;-88
2023/07/20 00:49:40;;;;;;;3.05;1.30;;;;;;;;;;5053451;28;20047;-85
2023/07/20 00:52:07;;;;;;;2.65;1.30;;;;;;;;;;5053752;28;20480;-89
2023/07/20 00:54:33;;;;;;;3.50;1.50;;;;;;;;;;5057046;28;20087;-83
2023/07/20 00:56:59;;;;;;;2.85;1.40;;;;;;;;;;5054536;28;20044;-84
2023/07/20 00:59:26;;;;;;;2.40;1.52;;;;;;;;;;5055774;28;20127;-83
2023/07/20 01:01:52;;;;;;;1.85;1.67;;;;;;;;;;5055682;28;20044;-83
2023/07/20 01:04:18;;;;;;;2.75;1.50;;;;;;;;;;5055505;28;21339;-80
2023/07/20 01:07:03;;;;;;;2.38;1.60;;;;;;;;;;5055039;28;20063;-88
2023/07/20 01:09:33;;;;;;;2.58;1.70;;;;;;;;;;5062657;28;20104;-87
2023/07/20 01:11:59;;;;;;;3.75;1.88;;;;;;;;;;5057383;28;20041;-90
2023/07/20 01:14:25;;;;;;;2.58;2.00;;;;;;;;;;5050909;28;20043;-85
2023/07/20 01:16:52;;;;;;;2.53;2.33;;;;;;;;;;5032869;28;20036;-82
2023/07/20 01:19:18;;;;;;;2.97;2.30;;;;;;;;;;5048929;28;20055;-87
2023/07/20 01:22:13;;;;;;;3.10;2.42;;;;;;;;;;5054748;28;20040;-87
2023/07/20 01:24:45;;;;;;;2.90;2.60;;;;;;;;;;5039716;28;20044;-85
2023/07/20 01:27:23;;;;;;;4.22;2.95;;;;;;;;;;5045979;28;20066;-85
2023/07/20 01:29:52;;;;;;;3.63;2.60;;;;;;;;;;5054788;28;20094;-78
2023/07/20 01:32:19;;;;;;;3.85;3.33;;;;;;;;;;5052832;28;20048;-87
2023/07/20 01:34:45;;;;;;;3.65;3.08;;;;;;;;;;5054848;28;20511;-84
2023/07/20 01:37:12;;;;;;;3.40;3.05;;;;;;;;;;5053430;28;20036;-88
2023/07/20 01:39:38;;;;;;;5.18;3.67;;;;;;;;;;5055157;28;20043;-84
2023/07/20 01:42:05;;;;;;;4.75;3.80;;;;;;;;;;5055981;28;20037;-89
2023/07/20 01:44:31;;;;;;;4.57;3.72;;;;;;;;;;5054950;28;20044;-82
2023/07/20 01:46:57;;;;;;;5.00;4.05;;;;;;;;;;5059809;28;20654;-88
2023/07/20 01:49:23;;;;;;;4.00;3.60;;;;;;;;;;5058881;28;20045;-82
2023/07/20 01:51:49;;;;;;;4.68;3.92;;;;;;;;;;5060523;28;20075;-89
2023/07/20 01:54:15;;;;;;;4.95;4.30;;;;;;;;;;5052935;28;20083;-85
2023/07/20 01:56:41;;;;;;;6.43;4.50;;;;;;;;;;5059328;28;20500;-88
2023/07/20 01:59:07;;;;;;;6.25;4.05;;;;;;;;;;5064386;28;20082;-87
2023/07/20 02:01:33;;;;;;;4.93;3.72;;;;;;;;;;5069034;28;20592;-85
2023/07/20 02:03:59;;;;;;;6.28;4.80;;;;;;;;;;5068156;28;20056;-86
2023/07/20 02:06:25;;;;;;;6.97;4.95;;;;;;;;;;5062823;28;20597;-77
2023/07/20 02:08:51;;;;;;;4.75;4.30;;;;;;;;;;5060829;28;20041;-83
2023/07/20 02:11:17;;;;;;;5.72;5.20;;;;;;;;;;5056621;28;20053;-83
2023/07/20 02:13:43;;;;;;;5.47;4.80;;;;;;;;;;5058039;28;20051;-84
2023/07/20 02:16:11;;;;;;;6.72;5.65;;;;;;;;;;5057048;28;20585;-88
2023/07/20 02:18:37;;;;;;;6.28;5.35;;;;;;;;;;5056071;28;20077;-83
2023/07/20 02:21:03;;;;;;;6.60;5.70;;;;;;;;;;5055835;28;20048;-86
2023/07/20 02:23:29;;;;;;;6.25;5.55;;;;;;;;;;5057997;28;20044;-89
2023/07/20 02:25:55;;;;;;;7.63;6.88;;;;;;;;;;5057357;28;20090;-84
2023/07/20 02:28:21;;;;;;;7.53;6.43;;;;;;;;;;5057959;28;20098;-88
2023/07/20 02:30:47;;;;;;;7.68;6.82;;;;;;;;;;5058142;28;20135;-76
2023/07/20 02:33:13;;;;;;;6.97;6.32;;;;;;;;;;5058257;28;20791;-86
2023/07/20 02:35:40;;;;;;;8.27;7.47;;;;;;;;;;5057822;28;20511;-87
2023/07/20 02:38:06;;;;;;;9.50;7.95;;;;;;;;;;5055050;28;20045;-81
2023/07/20 02:40:32;;;;;;;9.20;8.20;;;;;;;;;;5056964;28;20450;-82
2023/07/20 02:42:58;;;;;;;12.23;8.90;;;;;;;;;;5055576;28;20489;-86
2023/07/20 02:45:24;;;;;;;9.15;8.25;;;;;;;;;;5055001;28;20040;-82
2023/07/20 02:47:50;;;;;;;9.10;7.53;;;;;;;;;;5058647;28;20040;-87
2023/07/20 02:50:16;;;;;;;10.32;9.13;;;;;;;;;;5057124;28;20060;-88
2023/07/20 02:52:42;;;;;;;11.25;9.38;;;;;;;;;;5060368;28;20089;-86
2023/07/20 02:55:08;;;;;;;10.40;8.95;;;;;;;;;;5054304;28;20511;-85
2023/07/20 02:57:34;;;;;;;12.00;10.15;;;;;;;;;;5057033;28;20059;-87
2023/07/20 03:00:00;;;;;;;10.73;9.63;;;;;;;;;;5055252;28;20040;-88
2023/07/20 03:02:26;;;;;;;14.57;10.15;;;;;;;;;;5054407;28;20239;-88
2023/07/20 03:04:53;;;;;;;10.98;9.75;;;;;;;;;;5055747;28;20157;-83
2023/07/20 03:07:19;;;;;;;13.43;9.65;;;;;;;;;;5071130;28;20459;-87
2023/07/20 03:09:45;;;;;;;11.35;9.73;;;;;;;;;;5056566;28;20056;-83
2023/07/20 03:12:11;;;;;;;10.85;9.30;;;;;;;;;;5058613;28;20466;-86
2023/07/20 03:14:37;;;;;;;10.85;8.77;;;;;;;;;;5056583;28;20178;-88
2023/07/20 03:17:03;;;;;;;10.15;8.80;;;;;;;;;;5055401;28;20044;-87
2023/07/20 03:19:29;;;;;;;10.95;8.70;;;;;;;;;;5056732;28;20048;-81
2023/07/20 03:21:55;;;;;;;9.35;8.45;;;;;;;;;;5057524;28;20129;-84
2023/07/20 03:24:21;;;;;;;10.60;9.50;;;;;;;;;;5056123;28;20041;-77
2023/07/20 03:26:47;;;;;;;8.73;7.90;;;;;;;;;;5058361;28;20056;-87
2023/07/20 03:29:13;;;;;;;10.77;9.13;;;;;;;;;;5054513;28;20095;-81
2023/07/20 03:31:39;;;;;;;10.02;9.13;;;;;;;;;;5058265;28;20135;-87
2023/07/20 03:34:06;;;;;;;9.52;8.27;;;;;;;;;;5036716;28;20048;-88
2023/07/20 03:36:32;;;;;;;9.45;8.45;;;;;;;;;;5056796;28;20032;-86
2023/07/20 03:38:58;;;;;;;11.32;7.97;;;;;;;;;;5056824;28;20459;-86
2023/07/20 03:41:24;;;;;;;10.35;8.45;;;;;;;;;;5058760;28;20040;-87
2023/07/20 03:43:50;;;;;;;8.95;8.07;;;;;;;;;;5054539;28;20036;-83
2023/07/20 03:46:16;;;;;;;8.75;7.95;;;;;;;;;;5059988;28;20052;-87
2023/07/20 03:48:42;;;;;;;8.60;7.75;;;;;;;;;;5060187;28;20047;-85
2023/07/20 03:51:08;;;;;;;8.68;7.50;;;;;;;;;;5062563;28;20052;-83
2023/07/20 03:53:34;;;;;;;8.90;8.00;;;;;;;;;;5063023;28;20044;-83
2023/07/20 03:56:00;;;;;;;8.43;7.57;;;;;;;;;;5062344;28;20492;-87
2023/07/20 03:58:26;;;;;;;9.02;7.90;;;;;;;;;;5061796;28;20392;-86
2023/07/20 04:00:52;;;;;;;8.13;7.22;;;;;;;;;;5061954;28;20407;-87
2023/07/20 04:03:18;;;;;;;9.73;7.22;;;;;;;;;;5061518;28;20571;-83
2023/07/20 04:05:45;;;;;;;8.45;7.60;;;;;;;;;;5060331;28;20567;-84
2023/07/20 04:08:11;;;;;;;9.00;7.30;;;;;;;;;;5038959;28;20596;-80
2023/07/20 04:10:37;;;;;;;8.27;7.47;;;;;;;;;;5056370;28;20044;-82
2023/07/20 04:13:03;;;;;;;9.10;6.82;;;;;;;;;;5056810;28;20140;-86
2023/07/20 04:15:29;;;;;;;9.00;7.32;;;;;;;;;;5037262;28;20055;-88
2023/07/20 04:17:56;;;;;;;7.88;7.07;;;;;;;;;;5036115;28;20048;-77
2023/07/20 04:20:22;;;;;;;7.18;6.47;;;;;;;;;;5054444;28;20056;-82
2023/07/20 04:22:49;;;;;;;7.10;6.40;;;;;;;;;;5054769;28;20040;-83
2023/07/20 04:25:15;;;;;;;6.65;5.88;;;;;;;;;;5053456;28;20076;-84
2023/07/20 04:27:41;;;;;;;6.32;5.55;;;;;;;;;;5056660;28;20044;-87
2023/07/20 04:30:08;;;;;;;7.00;6.10;;;;;;;;;;5051429;28;20118;-76
2023/07/20 04:32:34;;;;;;;10.65;6.55;;;;;;;;;;5056478;28;20789;-87
2023/07/20 04:35:00;;;;;;;6.80;5.35;;;;;;;;;;5056585;28;20040;-86
2023/07/20 04:37:26;;;;;;;7.25;5.47;;;;;;;;;;5056754;28;20060;-87
2023/07/20 04:39:52;;;;;;;6.07;5.50;;;;;;;;;;5057094;28;20124;-84
2023/07/20 04:42:18;;;;;;;7.20;5.30;;;;;;;;;;5035686;28;20054;-85
2023/07/20 04:44:44;;;;;;;7.80;5.32;;;;;;;;;;5054517;28;20677;-87
2023/07/20 04:47:10;;;;;;;5.53;5.03;;;;;;;;;;5054829;28;20059;-85
2023/07/20 04:49:36;;;;;;;5.80;5.25;;;;;;;;;;5055085;28;20044;-88
2023/07/20 04:52:02;;;;;;;7.47;5.10;;;;;;;;;;5056795;28;20553;-86
2023/07/20 04:54:28;;;;;;;5.22;4.55;;;;;;;;;;5054279;28;21064;-84
2023/07/20 04:56:54;;;;;;;5.20;4.80;;;;;;;;;;5056675;28;20044;-85
2023/07/20 04:59:20;;;;;;;7.32;4.82;;;;;;;;;;5053125;28;20068;-83
2023/07/20 05:01:46;;;;;;;6.40;4.35;;;;;;;;;;5053959;28;20051;-85
2023/07/20 05:04:12;;;;;;;4.93;3.88;;;;;;;;;;5053223;28;20048;-83
2023/07/20 05:06:38;;;;;;;5.68;3.88;;;;;;;;;;5055555;28;20515;-86
2023/07/20 05:09:07;;;;;;;4.75;3.85;;;;;;;;;;5055833;28;20511;-77
2023/07/20 05:11:33;;;;;;;;;;;;;;;;;;5054956;28;20051;-87
2023/07/20 05:14:00;;;;;;;7.53;3.95;;;;;;;;;;5047933;28;20395;-86
2023/07/20 05:16:26;;;;;;;3.72;3.40;;;;;;;;;;5053601;28;20040;-79
2023/07/20 05:18:52;;;;;;;5.28;3.88;;;;;;;;;;5052168;28;20056;-86
2023/07/20 05:21:18;;;;;;;3.60;3.30;;;;;;;;;;5052672;28;20055;-85
2023/07/20 05:23:44;;;;;;;5.72;3.00;;;;;;;;;;5035927;28;20036;-84
2023/07/20 05:26:10;;;;;;;3.45;3.05;;;;;;;;;;5052170;28;20056;-82
2023/07/20 05:28:36;;;;;;;4.40;3.20;;;;;;;;;;5052635;28;20488;-83
2023/07/20 05:31:03;;;;;;;6.70;2.97;;;;;;;;;;5049366;28;20045;-82
2023/07/20 05:33:29;;;;;;;3.30;2.70;;;;;;;;;;5054427;28;20044;-79
2023/07/20 05:35:55;;;;;;;5.25;2.97;;;;;;;;;;5053177;28;20055;-87
2023/07/20 05:38:21;;;;;;;3.03;2.40;;;;;;;;;;5038858;28;20098;-87
2023/07/20 05:40:48;;;;;;;3.35;2.40;;;;;;;;;;5052174;28;20059;-83
2023/07/20 05:43:14;;;;;;;3.38;2.42;;;;;;;;;;5051951;28;20118;-86
2023/07/20 05:45:45;;;;;;;3.22;2.10;;;;;;;;;;5056070;28;20080;-87
2023/07/20 05:48:11;;;;;;;3.88;1.80;;;;;;;;;;5036288;28;20152;-79
2023/07/20 05:50:44;;;;;;;3.70;2.00;;;;;;;;;;5045755;28;20523;-87
2023/07/20 05:53:10;;;;;;;5.95;1.85;;;;;;;;;;5040336;28;20098;-84
2023/07/20 05:55:36;;;;;;;2.95;1.60;;;;;;;;;;5046277;28;20098;-86
2023/07/20 05:58:04;;;;;;;3.33;1.60;;;;;;;;;;5045024;28;20262;-80
2023/07/20 06:00:30;;;;;;;2.13;1.50;;;;;;;;;;5047310;28;20720;-86
2023/07/20 06:02:56;;;;;;;4.75;1.42;;;;;;;;;;5049026;28;20055;-81
2023/07/20 06:05:23;;;;;;;8.32;1.55;;;;;;;;;;5046470;28;20060;-83
2023/07/20 06:07:49;;;;;;;3.90;1.50;;;;;;;;;;5047339;28;20547;-85
2023/07/20 06:10:16;;;;;;;3.30;1.48;;;;;;;;;;5030267;28;20037;-86
2023/07/20 06:12:42;;;;;;;4.25;1.73;;;;;;;;;;5047300;28;20048;-83
2023/07/20 06:15:25;;;;;;;3.72;1.55;;;;;;;;;;5046672;28;20044;-86
2023/07/20 06:17:50;;;;;;;4.15;1.50;;;;;;;;;;5060646;28;20048;-86
2023/07/20 06:20:16;;;;;;;4.43;1.55;;;;;;;;;;5050028;28;20258;-86
2023/07/20 06:22:42;;;;;;;1.65;1.25;;;;;;;;;;5046864;28;20043;-87
2023/07/20 06:25:09;;;;;;;8.25;2.00;;;;;;;;;;5047536;28;20049;-77
2023/07/20 06:27:35;;;;;;;29.02;6.00;;;;;;;;;;5045399;28;20068;-79
2023/07/20 06:30:01;;;;;;;8.30;1.80;;;;;;;;;;5048686;28;20056;-78
2023/07/20 06:32:27;;;;;;;7.00;1.67;;;;;;;;;;5050986;28;20049;-81
2023/07/20 06:34:53;;;;;;;4.95;1.30;;;;;;;;;;5045410;28;20421;-77
2023/07/20 06:37:20;;;;;;;7.25;1.45;;;;;;;;;;5032286;28;20045;-82
2023/07/20 06:39:46;;;;;;;13.20;3.22;;;;;;;;;;5050409;28;20083;-78
2023/07/20 06:42:12;;;;;;;7.03;1.80;;;;;;;;;;5042095;28;20049;-80
2023/07/20 06:44:38;;;;;;;2.03;1.00;;;;;;;;;;5050791;28;20037;-86
2023/07/20 06:47:04;;;;;;;6.72;1.30;;;;;;;;;;5053468;28;20091;-87
2023/07/20 06:49:30;;;;;;;3.58;1.00;;;;;;;;;;5049412;28;20172;-77
2023/07/20 06:51:56;;;;;;;3.88;0.95;;;;;;;;;;5052395;28;20076;-82
2023/07/20 06:54:22;;;;;;;3.30;1.10;;;;;;;;;;5053701;28;20133;-81
2023/07/20 06:56:48;;;;;;;3.60;1.10;;;;;;;;;;5055323;28;20044;-81
2023/07/20 06:59:14;;;;;;;3.70;0.80;;;;;;;;;;5049700;28;20055;-82
2023/07/20 07:01:40;;;;;;;6.50;1.27;;;;;;;;;;5052905;28;20587;-81
2023/07/20 07:04:06;;;;;;;3.83;1.02;;;;;;;;;;5051055;28;20412;-83
2023/07/20 07:06:32;;;;;;;4.63;1.17;;;;;;;;;;5048701;28;20106;-82
2023/07/20 07:09:01;;;;;;;2.70;1.00;;;;;;;;;;5043383;28;20511;-82
2023/07/20 07:11:30;;;;;;;2.17;0.80;;;;;;;;;;5055943;28;20084;-84
2023/07/20 07:13:57;;;;;;;3.72;0.98;;;;;;;;;;5051637;28;20182;-83
2023/07/20 07:16:23;;;;;;;4.38;1.00;;;;;;;;;;5053954;28;20047;-83
2023/07/20 07:18:50;;;;;;;5.10;1.05;;;;;;;;;;5053788;28;20067;-83
2023/07/20 07:21:17;;;;;;;3.78;1.00;;;;;;;;;;5058632;28;20431;-82
2023/07/20 07:23:43;;;;;;;4.72;1.15;;;;;;;;;;5055315;28;20071;-81
2023/07/20 07:26:10;;;;;;;3.60;1.13;;;;;;;;;;5054380;28;20048;-81
2023/07/20 07:28:36;;;;;;;3.97;1.13;;;;;;;;;;5049504;28;20580;-83
2023/07/20 07:31:05;;;;;;;4.78;0.93;;;;;;;;;;5045713;28;20641;-82
2023/07/20 07:33:31;;;;;;;4.57;1.08;;;;;;;;;;5049982;28;20053;-82
2023/07/20 07:35:57;;;;;;;5.15;1.17;;;;;;;;;;5054486;28;20090;-83
2023/07/20 07:38:23;;;;;;;4.47;1.25;;;;;;;;;;5047403;28;20526;-84
2023/07/20 07:40:49;;;;;;;5.78;1.20;;;;;;;;;;5051429;28;20110;-83
2023/07/20 07:43:17;;;;;;;3.42;1.33;;;;;;;;;;5032289;28;20509;-84
2023/07/20 07:45:43;;;;;;;4.28;1.20;;;;;;;;;;5051759;28;20623;-82
2023/07/20 07:48:11;;;;;;;5.95;1.30;;;;;;;;;;5053007;28;20127;-81
2023/07/20 07:50:37;;;;;;;5.25;1.23;;;;;;;;;;5047708;28;20518;-85
2023/07/20 07:53:03;;;;;;;6.18;1.58;;;;;;;;;;5045029;28;20128;-85
2023/07/20 07:55:29;;;;;;;5.68;1.27;;;;;;;;;;5054135;28;20445;-83
2023/07/20 07:57:55;;;;;;;6.03;1.63;;;;;;;;;;5048181;28;20056;-82
2023/07/20 08:00:22;;;;;;;6.82;1.70;;;;;;;;;;5050462;28;20048;-82
2023/07/20 08:02:58;;;;;;;2.75;1.45;;;;;;;;;;5051882;28;20048;-82
2023/07/20 08:05:24;;;;;;;2.67;1.50;;;;;;;;;;5048448;28;20071;-82
2023/07/20 08:07:50;;;;;;;5.53;1.20;;;;;;;;;;5046148;28;20037;-84
2023/07/20 08:10:16;;;;;;;3.13;1.27;;;;;;;;;;5052282;28;20067;-83
2023/07/20 08:12:43;;;;;;;6.53;1.40;;;;;;;;;;5056518;28;20041;-82
2023/07/20 08:15:11;;;;;;;3.83;1.27;;;;;;;;;;5048459;28;20044;-80
2023/07/20 08:17:37;;;;;;;2.92;1.33;;;;;;;;;;5043786;28;20182;-82
2023/07/20 08:20:03;;;;;;;2.90;1.50;;;;;;;;;;5044637;28;20724;-83
2023/07/20 08:22:29;;;;;;;2.30;1.35;;;;;;;;;;5052939;28;20850;-83
2023/07/20 08:24:55;;;;;;;4.40;1.50;;;;;;;;;;5031479;28;20087;-85
2023/07/20 08:27:22;;;;;;;2.63;1.20;;;;;;;;;;5033296;28;20053;-82
2023/07/20 08:29:48;;;;;;;2.45;1.17;;;;;;;;;;5029136;28;20044;-81
2023/07/20 08:32:14;;;;;;;2.80;1.23;;;;;;;;;;5051822;28;20048;-82
2023/07/20 08:34:40;;;;;;;4.53;1.42;;;;;;;;;;5036101;28;20052;-82
2023/07/20 08:37:06;;;;;;;3.80;1.40;;;;;;;;;;5031415;28;20037;-83
2023/07/20 08:39:32;;;;;;;3.25;1.40;;;;;;;;;;5052059;28;20048;-83
2023/07/20 08:42:01;;;;;;;3.45;1.38;;;;;;;;;;5048951;28;20425;-82
2023/07/20 08:44:27;;;;;;;6.65;1.58;;;;;;;;;;5048732;28;20084;-82
2023/07/20 08:46:53;;;;;;;3.20;1.45;;;;;;;;;;5047648;28;20453;-83
2023/07/20 08:49:19;;;;;;;2.88;1.50;;;;;;;;;;5029593;28;20334;-82
2023/07/20 08:51:47;;;;;;;3.47;1.38;;;;;;;;;;5046165;28;20041;-82
2023/07/20 08:54:14;;;;;;;2.83;1.27;;;;;;;;;;5044116;28;20507;-82
2023/07/20 08:56:41;;;;;;;4.93;1.60;;;;;;;;;;5055945;28;20870;-82
2023/07/20 08:59:08;;;;;;;4.38;1.13;;;;;;;;;;5044629;28;20131;-81
2023/07/20 09:01:35;;;;;;;2.10;1.25;;;;;;;;;;5042961;28;20084;-83
2023/07/20 09:04:01;;;;;;;2.13;1.40;;;;;;;;;;5055144;28;20052;-84
2023/07/20 09:06:28;;;;;;;3.30;1.30;;;;;;;;;;5048714;28;20103;-82
2023/07/20 09:08:53;;;;;;;2.15;1.48;;;;;;;;;;5049449;28;20080;-84
2023/07/20 09:11:20;;;;;;;9.65;1.80;;;;;;;;;;5055846;28;20152;-84
2023/07/20 09:13:47;;;;;;;5.60;1.60;;;;;;;;;;5036355;28;20048;-81
2023/07/20 09:16:16;;;;;;;11.93;2.10;;;;;;;;;;5053806;28;20032;-82
2023/07/20 09:18:42;;;;;;;3.75;1.73;;;;;;;;;;5046901;28;20143;-82
2023/07/20 09:21:08;;;;;;;4.65;1.75;;;;;;;;;;5043140;28;20131;-82
2023/07/20 09:23:41;;;;;;;7.38;1.65;;;;;;;;;;5043826;28;20362;-83
2023/07/20 09:26:11;;;;;;;7.78;2.05;;;;;;;;;;5047144;28;20440;-81
2023/07/20 09:28:46;;;;;;;7.72;1.80;;;;;;;;;;5053811;28;20557;-80
2023/07/20 09:31:17;;;;;;;5.20;1.60;;;;;;;;;;5048457;28;20059;-87
2023/07/20 09:33:43;;;;;;;8.27;1.80;;;;;;;;;;5053810;28;20048;-85
2023/07/20 09:36:12;;;;;;;10.00;2.00;;;;;;;;;;5053966;28;20048;-86
2023/07/20 09:38:38;;;;;;;3.78;1.67;;;;;;;;;;5054445;28;20044;-84
2023/07/20 09:41:06;;;;;;;5.70;1.50;;;;;;;;;;5054990;28;20119;-86
2023/07/20 09:43:35;;;;;;;6.20;1.90;;;;;;;;;;5050238;28;20201;-83
2023/07/20 09:46:01;;;;;;;2.95;1.40;;;;;;;;;;5052820;28;20423;-81
2023/07/20 09:48:27;;;;;;;4.38;1.45;;;;;;;;;;5048687;28;20385;-82
2023/07/20 09:50:55;;;;;;;3.50;1.20;;;;;;;;;;5051297;28;20570;-82
2023/07/20 09:53:21;;;;;;;4.75;1.40;;;;;;;;;;5055918;28;20040;-79
2023/07/20 09:55:47;;;;;;;3.45;1.20;;;;;;;;;;5046955;28;20132;-83
2023/07/20 09:58:14;;;;;;;4.03;1.00;;;;;;;;;;5050160;28;20043;-81
2023/07/20 10:00:44;;;;;;;3.85;1.00;;;;;;;;;;5049096;28;20124;-82
2023/07/20 10:03:11;;;;;;;4.43;1.13;;;;;;;;;;5058439;28;20055;-82
2023/07/20 10:05:43;;;;;;;3.67;1.15;;;;;;;;;;5053063;28;20075;-82
2023/07/20 10:08:12;;;;;;;4.35;1.20;;;;;;;;;;5054007;28;20548;-82
2023/07/20 10:10:38;;;;;;;7.90;1.48;;;;;;;;;;5048653;28;20152;-81
2023/07/20 10:13:06;;;;;;;4.70;1.17;;;;;;;;;;5048090;28;20037;-84
2023/07/20 10:15:43;;;;;;;4.88;1.40;;;;;;;;;;5051648;28;20047;-83
2023/07/20 10:18:19;;;;;;;4.47;1.30;;;;;;;;;;5047334;28;20040;-81
2023/07/20 10:20:47;;;;;;;4.65;1.35;;;;;;;;;;5056940;28;20499;-80
2023/07/20 10:23:13;;;;;;;3.10;1.27;;;;;;;;;;5051518;28;20361;-83
2023/07/20 10:25:41;;;;;;;3.83;1.20;;;;;;;;;;5051842;28;20049;-81
2023/07/20 10:28:07;;;;;;;;;;;;;;;;;;5055220;28;20724;-83
2023/07/20 10:30:34;;;;;;;4.20;1.10;;;;;;;;;;5050910;28;19978;-84
2023/07/20 10:33:02;;;;;;;2.83;0.90;;;;;;;;;;5055879;28;20044;-82
2023/07/20 10:35:28;;;;;;;4.13;1.10;;;;;;;;;;5048223;28;20106;-84
2023/07/20 10:37:55;;;;;;;2.92;1.10;;;;;;;;;;5055464;28;20072;-84
2023/07/20 10:40:28;;;;;;;2.88;1.00;;;;;;;;;;5046441;28;20053;-84
2023/07/20 10:43:01;;;;;;;5.13;1.20;;;;;;;;;;5053339;28;20443;-82
2023/07/20 10:45:39;;;;;;;3.25;1.00;;;;;;;;;;5052824;28;20049;-83
2023/07/20 10:48:05;;;;;;;;;;;;;;;;;;5052592;28;20055;-80
2023/07/20 10:50:34;;;;;;;3.53;1.10;;;;;;;;;;5058434;28;19924;-84
2023/07/20 10:53:00;;;;;;;;;;;;;;;;;;5049113;28;20052;-81
2023/07/20 10:55:26;;;;;;;5.95;1.00;;;;;;;;;;5034757;28;19925;-81
2023/07/20 10:58:11;;;;;;;4.25;0.95;;;;;;;;;;5043704;28;20514;-81
2023/07/20 11:00:37;;;;;;;3.53;0.93;;;;;;;;;;5058872;28;20497;-80
2023/07/20 11:03:03;;;;;;;2.92;0.82;;;;;;;;;;5051910;28;20086;-80
2023/07/20 11:05:36;;;;;;;2.72;0.90;;;;;;;;;;5051843;28;20047;-80
2023/07/20 11:08:06;;;;;;;2.53;1.00;;;;;;;;;;5045751;28;20037;-82
2023/07/20 11:10:33;;;;;;;2.95;0.88;;;;;;;;;;5049671;28;20749;-81
2023/07/20 11:13:17;;;;;;;6.57;1.20;;;;;;;;;;5051419;28;20044;-86
2023/07/20 11:15:47;;;;;;;2.63;0.88;;;;;;;;;;5038300;28;20052;-83
2023/07/20 11:18:13;;;;;;;4.43;1.10;;;;;;;;;;5049867;28;20507;-84
2023/07/20 11:20:40;;;;;;;3.67;1.10;;;;;;;;;;5048800;28;20040;-83
2023/07/20 11:23:06;;;;;;;2.80;1.00;;;;;;;;;;5051785;28;20040;-81
2023/07/20 11:25:40;;;;;;;4.47;1.00;;;;;;;;;;5052659;28;20059;-84
2023/07/20 11:28:10;;;;;;;2.55;0.80;;;;;;;;;;5046884;28;20053;-83
2023/07/20 11:30:37;;;;;;;3.42;0.80;;;;;;;;;;5052400;28;20494;-82
2023/07/20 11:33:03;;;;;;;3.20;0.98;;;;;;;;;;5046900;28;20485;-83
2023/07/20 11:35:29;;;;;;;5.43;1.00;;;;;;;;;;5051764;28;20179;-82
2023/07/20 11:37:56;;;;;;;5.00;1.00;;;;;;;;;;5043157;28;20044;-85
2023/07/20 11:40:22;;;;;;;4.03;1.00;;;;;;;;;;5049479;28;20511;-84
2023/07/20 11:42:50;;;;;;;3.03;1.20;;;;;;;;;;5046069;28;20045;-81
2023/07/20 11:45:17;;;;;;;3.85;0.95;;;;;;;;;;5054348;28;20048;-84
2023/07/20 11:47:43;;;;;;;2.85;0.98;;;;;;;;;;5044488;28;20048;-84
2023/07/20 11:50:11;;;;;;;3.92;0.90;;;;;;;;;;5034695;28;20040;-84
2023/07/20 11:52:37;;;;;;;5.70;1.13;;;;;;;;;;5046440;28;20044;-81
2023/07/20 11:55:03;;;;;;;2.72;1.00;;;;;;;;;;5044675;28;20746;-82
2023/07/20 11:57:29;;;;;;;1.77;0.70;;;;;;;;;;5051636;28;20128;-82
2023/07/20 12:00:04;;;;;;;6.97;1.00;;;;;;;;;;5045359;28;20063;-81
2023/07/20 12:02:30;;;;;;;4.45;1.00;;;;;;;;;;5055275;28;20056;-82
2023/07/20 12:04:57;;;;;;;3.08;0.82;;;;;;;;;;5054004;28;20710;-83
2023/07/20 12:07:23;;;;;;;3.72;0.90;;;;;;;;;;5036472;28;20055;-85
2023/07/20 12:10:08;;;;;;;3.78;1.05;;;;;;;;;;5026582;28;20132;-84
2023/07/20 12:12:35;;;;;;;5.70;1.15;;;;;;;;;;5048797;28;20047;-82
2023/07/20 12:15:18;;;;;;;2.97;1.35;;;;;;;;;;5056306;28;20048;-84
2023/07/20 12:17:47;;;;;;;3.70;1.10;;;;;;;;;;5057991;28;20068;-83
2023/07/20 12:20:13;;;;;;;2.28;0.88;;;;;;;;;;5060144;28;20077;-84
2023/07/20 12:22:43;;;;;;;2.90;0.90;;;;;;;;;;5057203;28;20083;-82
2023/07/20 12:25:10;;;;;;;2.35;0.80;;;;;;;;;;5050613;28;20568;-84
2023/07/20 12:27:40;;;;;;;3.63;1.17;;;;;;;;;;5046707;28;20045;-83
2023/07/20 12:30:06;;;;;;;3.55;0.90;;;;;;;;;;5048181;28;20056;-83
2023/07/20 12:32:33;;;;;;;2.08;0.95;;;;;;;;;;5053552;28;20121;-84
2023/07/20 12:35:00;;;;;;;3.33;1.00;;;;;;;;;;5057743;28;20068;-83
2023/07/20 12:37:26;;;;;;;3.40;1.10;;;;;;;;;;5044280;28;20045;-84
2023/07/20 12:39:53;;;;;;;1.92;0.85;;;;;;;;;;5047888;28;20052;-81
2023/07/20 12:42:19;;;;;;;2.50;1.00;;;;;;;;;;5050182;28;20040;-82
2023/07/20 12:44:45;;;;;;;6.90;1.00;;;;;;;;;;5048248;28;20066;-80
2023/07/20 12:47:11;;;;;;;3.72;1.00;;;;;;;;;;5044838;28;20032;-85
2023/07/20 12:49:37;;;;;;;3.30;0.90;;;;;;;;;;5057898;28;20802;-81
2023/07/20 12:52:03;;;;;;;5.43;1.05;;;;;;;;;;5046172;28;20080;-86
2023/07/20 12:54:29;;;;;;;3.42;1.40;;;;;;;;;;5041725;28;20041;-84
2023/07/20 12:56:55;;;;;;;5.50;1.10;;;;;;;;;;5051085;28;20049;-82
2023/07/20 12:59:21;;;;;;;4.22;1.40;;;;;;;;;;5051890;28;20044;-85
2023/07/20 13:01:47;;;;;;;9.55;1.33;;;;;;;;;;5050644;28;20942;-84
2023/07/20 13:04:13;;;;;;;3.53;0.90;;;;;;;;;;5051509;28;20068;-82
2023/07/20 13:06:41;;;;;;;4.05;1.60;;;;;;;;;;5058071;28;20048;-83
2023/07/20 13:09:08;;;;;;;3.08;1.10;;;;;;;;;;5056752;28;20043;-83
2023/07/20 13:11:34;;;;;;;5.28;1.27;;;;;;;;;;5060480;28;20048;-82
2023/07/20 13:14:00;;;;;;;2.47;1.17;;;;;;;;;;5058235;28;20043;-82
2023/07/20 13:16:26;;;;;;;2.42;0.98;;;;;;;;;;5051607;28;20056;-83
2023/07/20 13:18:53;;;;;;;3.78;1.10;;;;;;;;;;5059459;28;20099;-85
2023/07/20 13:21:22;;;;;;;3.40;1.10;;;;;;;;;;5049847;28;20040;-81
2023/07/20 13:23:48;;;;;;;3.65;1.08;;;;;;;;;;5059166;28;20499;-81
2023/07/20 13:26:14;;;;;;;2.78;1.05;;;;;;;;;;5054106;28;20590;-84
2023/07/20 13:28:41;;;;;;;2.95;0.90;;;;;;;;;;5056813;28;20052;-83
2023/07/20 13:31:08;;;;;;;5.10;1.27;;;;;;;;;;5055440;28;20037;-79
2023/07/20 13:33:35;;;;;;;2.05;0.80;;;;;;;;;;5059948;28;20059;-85
2023/07/20 13:36:01;;;;;;;2.40;0.98;;;;;;;;;;5058330;28;20124;-82
2023/07/20 13:38:27;;;;;;;2.88;1.00;;;;;;;;;;5045863;28;20049;-82
2023/07/20 13:40:53;;;;;;;4.57;0.77;;;;;;;;;;5059295;28;20127;-85
2023/07/20 13:43:19;;;;;;;1.88;0.90;;;;;;;;;;5049449;28;20075;-80
2023/07/20 13:45:45;;;;;;;3.13;0.95;;;;;;;;;;5058126;28;20568;-84
2023/07/20 13:48:11;;;;;;;3.60;0.70;;;;;;;;;;5049832;28;20071;-78
2023/07/20 13:50:37;;;;;;;3.15;0.90;;;;;;;;;;5058655;28;20089;-92
2023/07/20 13:53:04;;;;;;;5.88;1.00;;;;;;;;;;5057796;28;20139;-80
2023/07/20 13:55:31;;;;;;;2.58;0.82;;;;;;;;;;5056075;28;20040;-76
2023/07/20 13:57:57;;;;;;;3.42;0.90;;;;;;;;;;5065923;28;20044;-81
2023/07/20 14:00:24;;;;;;;2.28;0.80;;;;;;;;;;5071157;28;20063;-94
2023/07/20 14:02:50;;;;;;;4.50;1.10;;;;;;;;;;5079812;28;20053;-75
2023/07/20 14:05:16;;;;;;;4.05;1.10;;;;;;;;;;5067209;28;20058;-80
2023/07/20 14:07:43;;;;;;;2.75;0.80;;;;;;;;;;5074784;28;20064;-88
2023/07/20 14:10:09;;;;;;;3.17;0.73;;;;;;;;;;5056689;28;20048;-75
2023/07/20 14:12:37;;;;;;;3.28;1.23;;;;;;;;;;5044971;28;20048;-83
2023/07/20 14:15:04;;;;;;;3.60;1.00;;;;;;;;;;5053502;28;20055;-90
2023/07/20 14:17:30;;;;;;;2.90;1.00;;;;;;;;;;5056853;28;20083;-82
2023/07/20 14:19:56;;;;;;;3.85;1.00;;;;;;;;;;5050406;28;20045;-74
2023/07/20 14:22:23;;;;;;;3.63;1.23;;;;;;;;;;5065198;28;20055;-80
2023/07/20 14:24:49;;;;;;;5.28;1.20;;;;;;;;;;5074726;28;20053;-77
2023/07/20 14:27:15;;;;;;;5.10;1.10;;;;;;;;;;5069328;28;20075;-93
2023/07/20 14:29:41;;;;;;;3.25;0.80;;;;;;;;;;5069975;28;20049;-96
2023/07/20 14:32:07;;;;;;;2.30;1.00;;;;;;;;;;5068451;28;20103;-91
2023/07/20 14:34:33;;;;;;;3.10;1.13;;;;;;;;;;5062881;28;20052;-96
2023/07/20 14:37:04;;;;;;;4.10;1.00;;;;;;;;;;5052650;28;20037;-75
2023/07/20 14:39:30;;;;;;;2.80;0.93;;;;;;;;;;5037569;28;20037;-79
2023/07/20 14:41:56;;;;;;;2.40;0.93;;;;;;;;;;5055180;28;20056;-75